createdAt,value
2023-01-19T00:00:21.067Z,-1.06
2023-01-19T00:02:48.076Z,-1.09
2023-01-19T00:05:14.818Z,-1.12
2023-01-19T00:07:41.869Z,-1.15
2023-01-19T00:10:09.580Z,-1.21
2023-01-19T00:12:36.246Z,-1.22
2023-01-19T00:15:02.870Z,-1.26
2023-01-19T00:17:29.292Z,-1.28
2023-01-19T00:19:55.759Z,-1.20
2023-01-19T00:22:22.175Z,-1.24
2023-01-19T00:24:48.632Z,-1.27
2023-01-19T00:27:15.028Z,-1.24
2023-01-19T00:29:41.452Z,-1.20
2023-01-19T00:32:08.071Z,-1.21
2023-01-19T00:34:39.579Z,-1.24
2023-01-19T00:37:07.345Z,-1.24
2023-01-19T00:39:33.767Z,-1.28
2023-01-19T00:42:18.889Z,-1.26
2023-01-19T00:44:45.292Z,-1.26
2023-01-19T00:47:11.682Z,-1.26
2023-01-19T00:49:38.135Z,-1.21
2023-01-19T00:52:04.826Z,-1.22
2023-01-19T00:54:31.226Z,-1.15
2023-01-19T00:56:57.709Z,-1.10
2023-01-19T00:59:25.746Z,-1.18
2023-01-19T01:01:52.280Z,-1.18
2023-01-19T01:04:18.795Z,-1.25
2023-01-19T01:06:45.206Z,-1.20
2023-01-19T01:09:14.475Z,-1.28
2023-01-19T01:11:42.822Z,-1.27
2023-01-19T01:14:11.290Z,-1.15
2023-01-19T01:16:38.174Z,-1.13
2023-01-19T01:19:04.717Z,-1.11
2023-01-19T01:21:31.317Z,-1.16
2023-01-19T01:23:57.712Z,-1.15
2023-01-19T01:26:25.895Z,-1.18
2023-01-19T01:28:53.588Z,-1.14
2023-01-19T01:31:20.139Z,-1.11
2023-01-19T01:33:46.618Z,-1.19
2023-01-19T01:36:13.020Z,-1.10
2023-01-19T01:38:40.682Z,-1.13
2023-01-19T01:41:08.317Z,-1.08
2023-01-19T01:43:58.165Z,-1.14
2023-01-19T01:46:26.862Z,-1.12
2023-01-19T01:49:13.336Z,-1.12
2023-01-19T01:51:47.169Z,-1.18
2023-01-19T01:54:23.110Z,-1.10
2023-01-19T01:56:56.860Z,-1.05
2023-01-19T01:59:27.979Z,-1.00
2023-01-19T02:02:18.494Z,-1.01
2023-01-19T02:04:51.481Z,-1.08
2023-01-19T02:07:45.405Z,-1.03
2023-01-19T02:10:30.542Z,-1.09
2023-01-19T02:13:16.113Z,-1.03
2023-01-19T02:15:43.739Z,-1.08
2023-01-19T02:18:10.820Z,-1.05
2023-01-19T02:30:00.967Z,-1.14
2023-01-19T02:32:28.090Z,-1.14
2023-01-19T02:34:55.049Z,-1.10
2023-01-19T02:37:21.963Z,-1.04
2023-01-19T02:39:54.613Z,-1.02
2023-01-19T02:42:29.352Z,-1.05
2023-01-19T02:44:57.469Z,-1.05
2023-01-19T02:47:24.309Z,-1.06
2023-01-19T02:49:58.062Z,-0.99
2023-01-19T02:52:25.419Z,-0.98
2023-01-19T02:55:18.428Z,-1.04
2023-01-19T02:57:58.600Z,-1.02
2023-01-19T03:00:36.620Z,-1.05
2023-01-19T03:03:23.259Z,-0.92
2023-01-19T03:05:57.331Z,-0.98
2023-01-19T03:08:38.702Z,-0.93
2023-01-19T03:11:12.576Z,-0.90
2023-01-19T03:13:50.424Z,-0.95
2023-01-19T03:16:24.305Z,-0.96
2023-01-19T03:18:55.370Z,-0.87
2023-01-19T03:21:23.708Z,-0.96
2023-01-19T03:23:51.135Z,-1.01
2023-01-19T03:26:27.225Z,-1.04
2023-01-19T03:28:56.343Z,-1.09
2023-01-19T03:31:26.092Z,-1.03
2023-01-19T03:34:00.812Z,-1.01
2023-01-19T03:36:35.903Z,-1.06
2023-01-19T03:39:04.912Z,-1.05
2023-01-19T03:41:34.248Z,-1.06
2023-01-19T03:44:01.313Z,-1.10
2023-01-19T03:46:28.730Z,-1.12
2023-01-19T03:48:55.207Z,-1.09
2023-01-19T03:51:22.009Z,-1.16
2023-01-19T03:53:49.977Z,-1.12
2023-01-19T03:56:24.866Z,-1.13
2023-01-19T03:58:51.764Z,-1.11
2023-01-19T04:01:22.722Z,-1.08
2023-01-19T04:03:50.448Z,-1.10
2023-01-19T04:06:17.540Z,-1.12
2023-01-19T04:08:43.991Z,-1.12
2023-01-19T04:11:10.391Z,-1.14
2023-01-19T04:13:36.808Z,-1.06
2023-01-19T04:16:04.602Z,-1.08
2023-01-19T04:18:33.911Z,-1.10
2023-01-19T04:21:06.774Z,-1.22
2023-01-19T04:23:33.791Z,-1.14
2023-01-19T04:26:01.773Z,-1.04
2023-01-19T04:28:28.267Z,-0.99
2023-01-19T04:30:54.760Z,-0.97
2023-01-19T04:33:22.482Z,-1.03
2023-01-19T04:35:51.541Z,-1.17
2023-01-19T04:38:19.972Z,-1.22
2023-01-19T04:40:47.042Z,-1.29
2023-01-19T04:43:14.216Z,-1.33
2023-01-19T04:45:40.884Z,-1.39
2023-01-19T04:48:07.272Z,-1.44
2023-01-19T04:50:33.675Z,-1.51
2023-01-19T04:53:01.127Z,-1.53
2023-01-19T04:55:28.031Z,-1.51
2023-01-19T04:57:54.424Z,-1.49
2023-01-19T05:00:21.524Z,-1.48
2023-01-19T05:02:47.982Z,-1.50
2023-01-19T05:05:14.412Z,-1.58
2023-01-19T05:07:40.885Z,-1.59
2023-01-19T05:10:07.988Z,-1.54
2023-01-19T05:12:34.415Z,-1.55
2023-01-19T05:15:01.784Z,-1.57
2023-01-19T05:17:28.261Z,-1.54
2023-01-19T05:19:54.664Z,-1.44
2023-01-19T05:22:21.109Z,-1.52
2023-01-19T05:24:47.518Z,-1.54
2023-01-19T05:27:13.951Z,-1.58
2023-01-19T05:29:40.335Z,-1.47
2023-01-19T05:32:06.790Z,-1.62
2023-01-19T05:34:33.206Z,-1.56
2023-01-19T05:36:59.595Z,-1.60
2023-01-19T05:39:26.710Z,-1.59
2023-01-19T05:41:53.123Z,-1.53
2023-01-19T05:44:19.515Z,-1.58
2023-01-19T05:46:46.107Z,-1.53
2023-01-19T05:49:12.848Z,-1.50
2023-01-19T05:51:40.392Z,-1.49
2023-01-19T05:54:07.996Z,-1.45
2023-01-19T05:56:35.517Z,-1.47
2023-01-19T05:59:02.273Z,-1.48
2023-01-19T06:01:28.814Z,-1.49
2023-01-19T06:03:55.390Z,-1.48
2023-01-19T06:06:21.798Z,-1.48
2023-01-19T06:08:48.217Z,-1.42
2023-01-19T06:11:14.667Z,-1.47
2023-01-19T06:13:42.156Z,-1.46
2023-01-19T06:16:09.207Z,-1.46
2023-01-19T06:18:35.907Z,-1.54
2023-01-19T06:21:09.470Z,-1.62
2023-01-19T06:23:36.075Z,-1.56
2023-01-19T06:26:03.736Z,-1.56
2023-01-19T06:28:30.309Z,-1.57
2023-01-19T06:30:57.177Z,-1.54
2023-01-19T06:33:24.551Z,-1.50
2023-01-19T06:35:51.433Z,-1.49
2023-01-19T06:38:18.574Z,-1.50
2023-01-19T06:40:45.987Z,-1.53
2023-01-19T06:43:13.556Z,-1.53
2023-01-19T06:45:39.971Z,-1.53
2023-01-19T06:48:06.421Z,-1.57
2023-01-19T06:50:32.856Z,-1.57
2023-01-19T06:52:59.602Z,-1.58
2023-01-19T06:55:27.924Z,-1.57
2023-01-19T06:57:59.110Z,-1.60
2023-01-19T07:00:25.948Z,-1.61
2023-01-19T07:02:52.719Z,-1.54
2023-01-19T07:05:19.119Z,-1.45
2023-01-19T07:07:51.911Z,-1.56
2023-01-19T07:10:18.347Z,-1.54
2023-01-19T07:12:47.201Z,-1.53
2023-01-19T07:15:15.406Z,-1.52
2023-01-19T07:17:42.212Z,-1.53
2023-01-19T07:20:15.592Z,-1.61
2023-01-19T07:22:46.629Z,-1.60
2023-01-19T07:25:13.648Z,-1.64
2023-01-19T07:27:40.515Z,-1.66
2023-01-19T07:30:08.267Z,-1.69
2023-01-19T07:32:34.836Z,-1.61
2023-01-19T07:35:01.199Z,-1.59
2023-01-19T07:37:27.593Z,-1.58
2023-01-19T07:39:54.072Z,-1.62
2023-01-19T07:42:20.642Z,-1.52
2023-01-19T07:44:47.037Z,-1.53
2023-01-19T07:47:13.620Z,-1.51
2023-01-19T07:49:40.185Z,-1.49
2023-01-19T07:52:06.758Z,-1.42
2023-01-19T07:54:33.524Z,-1.37
2023-01-19T07:57:03.352Z,-1.35
2023-01-19T07:59:31.037Z,-1.40
2023-01-19T08:01:59.313Z,-1.41
2023-01-19T08:04:27.257Z,-1.32
2023-01-19T08:06:54.131Z,-1.36
2023-01-19T08:09:20.880Z,-1.30
2023-01-19T08:11:47.299Z,-1.35
2023-01-19T08:14:13.760Z,-1.28
2023-01-19T08:16:40.223Z,-1.23
2023-01-19T08:19:06.675Z,-1.22
2023-01-19T08:21:33.339Z,-1.29
2023-01-19T08:23:59.776Z,-1.25
2023-01-19T08:26:33.822Z,-1.20
2023-01-19T08:29:05.446Z,-1.12
2023-01-19T08:31:32.193Z,-1.14
2023-01-19T08:33:58.693Z,-1.16
2023-01-19T08:36:25.199Z,-1.17
2023-01-19T08:38:51.836Z,-1.12
2023-01-19T08:41:18.316Z,-1.07
2023-01-19T08:43:45.440Z,-1.02
2023-01-19T08:46:12.611Z,-1.05
2023-01-19T08:48:40.028Z,-0.96
2023-01-19T08:51:06.573Z,-0.92
2023-01-19T08:53:32.993Z,-0.94
2023-01-19T08:56:02.429Z,-0.86
2023-01-19T08:58:28.989Z,-0.85
2023-01-19T09:00:55.659Z,-0.85
2023-01-19T09:03:22.770Z,-0.73
2023-01-19T09:05:49.453Z,-0.68
2023-01-19T09:08:16.432Z,-0.64
2023-01-19T09:10:48.424Z,-0.71
2023-01-19T09:13:15.620Z,-0.60
2023-01-19T09:15:43.163Z,-0.48
2023-01-19T09:18:13.961Z,-0.51
2023-01-19T09:20:42.716Z,-0.37
2023-01-19T09:23:13.798Z,-0.40
2023-01-19T09:25:41.086Z,-0.34
2023-01-19T09:28:09.460Z,-0.33
2023-01-19T09:30:39.185Z,-0.24
2023-01-19T09:33:12.996Z,-0.24
2023-01-19T09:35:39.839Z,-0.18
2023-01-19T09:38:08.803Z,-0.09
2023-01-19T09:40:37.016Z,0.02
2023-01-19T09:43:12.550Z,0.06
2023-01-19T09:45:48.124Z,0.08
2023-01-19T09:48:43.811Z,0.16
2023-01-19T09:51:16.690Z,0.21
2023-01-19T09:53:56.288Z,0.26
2023-01-19T09:56:24.136Z,0.32
2023-01-19T09:58:51.471Z,0.28
2023-01-19T10:01:30.369Z,0.31
2023-01-19T10:04:30.393Z,0.42
2023-01-19T10:07:29.117Z,0.42
2023-01-19T10:10:07.472Z,0.51
2023-01-19T10:13:08.948Z,0.65
2023-01-19T10:15:38.324Z,0.70
2023-01-19T10:18:12.692Z,0.66
2023-01-19T10:20:48.937Z,0.73
2023-01-19T10:23:27.818Z,0.74
2023-01-19T10:25:55.412Z,0.82
2023-01-19T10:28:25.348Z,0.87
2023-01-19T10:30:54.235Z,0.85
2023-01-19T10:33:20.682Z,0.97
2023-01-19T10:35:48.724Z,1.04
2023-01-19T10:38:19.782Z,1.07
2023-01-19T10:40:50.595Z,1.08
2023-01-19T10:43:34.955Z,1.14
2023-01-19T10:46:05.973Z,1.31
2023-01-19T10:48:39.753Z,1.29
2023-01-19T10:51:06.448Z,1.31
2023-01-19T10:53:32.985Z,1.33
2023-01-19T10:56:22.916Z,1.45
2023-01-19T10:58:49.388Z,1.47
2023-01-19T11:01:24.921Z,1.50
2023-01-19T11:03:53.332Z,1.54
2023-01-19T11:06:21.053Z,1.61
2023-01-19T11:08:51.216Z,1.65
2023-01-19T11:11:23.214Z,1.70
2023-01-19T11:14:13.912Z,1.75
2023-01-19T11:16:41.158Z,1.76
2023-01-19T11:19:19.640Z,1.85
2023-01-19T11:21:46.050Z,1.92
2023-01-19T11:24:14.737Z,2.02
2023-01-19T11:26:50.304Z,2.08
2023-01-19T11:29:27.306Z,2.10
2023-01-19T11:31:54.914Z,2.07
2023-01-19T11:34:37.368Z,2.16
2023-01-19T11:37:06.418Z,2.15
2023-01-19T11:39:48.369Z,2.28
2023-01-19T11:42:16.043Z,2.33
2023-01-19T11:44:58.774Z,2.29
2023-01-19T11:47:30.400Z,2.36
2023-01-19T11:50:23.518Z,2.43
2023-01-19T11:53:11.452Z,2.52
2023-01-19T11:55:46.941Z,2.53
2023-01-19T11:58:16.572Z,2.58
2023-01-19T12:00:46.242Z,2.69
2023-01-19T12:03:22.802Z,2.68
2023-01-19T12:05:53.033Z,2.72
2023-01-19T12:08:27.812Z,2.70
2023-01-19T12:10:59.225Z,2.76
2023-01-19T12:13:27.370Z,2.84
2023-01-19T12:16:01.051Z,2.95
2023-01-19T12:18:36.883Z,3.01
2023-01-19T12:21:04.328Z,3.09
2023-01-19T12:23:56.321Z,3.10
2023-01-19T12:26:30.733Z,3.20
2023-01-19T12:29:12.041Z,3.24
2023-01-19T12:31:40.646Z,3.22
2023-01-19T12:34:31.105Z,3.20
2023-01-19T12:37:28.689Z,3.15
2023-01-19T12:39:57.123Z,3.22
2023-01-19T12:42:24.494Z,3.33
2023-01-19T12:45:05.654Z,3.40
2023-01-19T12:47:32.173Z,3.41
2023-01-19T12:50:06.846Z,3.39
2023-01-19T12:52:41.037Z,3.45
2023-01-19T12:55:13.520Z,3.53
2023-01-19T12:58:14.557Z,3.44
2023-01-19T13:00:45.445Z,3.44
2023-01-19T13:03:18.129Z,3.49
2023-01-19T13:05:44.556Z,3.52
2023-01-19T13:08:13.610Z,3.43
2023-01-19T13:11:09.580Z,3.53
2023-01-19T13:13:42.237Z,3.46
2023-01-19T13:16:37.422Z,3.46
2023-01-19T13:19:06.878Z,3.43
2023-01-19T13:21:48.031Z,3.45
2023-01-19T13:24:15.760Z,3.55
2023-01-19T13:26:55.033Z,3.63
2023-01-19T13:29:34.484Z,3.75
2023-01-19T13:32:12.717Z,3.77
2023-01-19T13:34:39.069Z,3.75
2023-01-19T13:37:06.232Z,3.68
2023-01-19T13:39:36.989Z,3.72
2023-01-19T13:42:18.465Z,3.69
2023-01-19T13:44:52.296Z,3.66
2023-01-19T13:47:22.573Z,3.63
2023-01-19T13:49:55.558Z,3.64
2023-01-19T13:52:27.509Z,3.50
2023-01-19T13:55:02.508Z,3.49
2023-01-19T13:57:32.223Z,3.49
2023-01-19T14:00:09.538Z,3.60
2023-01-19T14:02:39.314Z,3.64
2023-01-19T14:05:20.036Z,3.61
2023-01-19T14:07:46.660Z,3.72
2023-01-19T14:10:16.568Z,3.61
2023-01-19T14:12:58.501Z,3.70
2023-01-19T14:15:25.652Z,3.67
2023-01-19T14:18:10.467Z,3.66
2023-01-19T14:20:37.735Z,3.64
2023-01-19T14:23:05.316Z,3.61
2023-01-19T14:25:35.168Z,3.66
2023-01-19T14:28:27.790Z,3.67
2023-01-19T14:31:17.280Z,3.64
2023-01-19T14:33:46.862Z,3.70
2023-01-19T14:36:17.884Z,3.66
2023-01-19T14:38:48.484Z,3.53
2023-01-19T14:41:24.306Z,3.50
2023-01-19T14:43:50.746Z,3.47
2023-01-19T14:46:20.728Z,3.49
2023-01-19T14:48:53.247Z,3.45
2023-01-19T14:51:23.336Z,3.39
2023-01-19T14:53:56.368Z,3.39
2023-01-19T14:56:32.580Z,3.43
2023-01-19T14:59:01.446Z,3.39
2023-01-19T15:01:28.632Z,3.38
2023-01-19T15:03:58.566Z,3.22
2023-01-19T15:06:26.345Z,3.21
2023-01-19T15:08:53.463Z,3.19
2023-01-19T15:11:32.705Z,3.25
2023-01-19T15:13:59.811Z,3.06
2023-01-19T15:16:27.736Z,3.15
2023-01-19T15:18:54.381Z,3.21
2023-01-19T15:21:23.691Z,3.05
2023-01-19T15:23:50.496Z,3.08
2023-01-19T15:26:18.917Z,3.13
2023-01-19T15:28:45.868Z,3.15
2023-01-19T15:31:17.908Z,3.03
2023-01-19T15:33:44.801Z,3.01
2023-01-19T15:36:17.931Z,2.93
2023-01-19T15:38:45.527Z,2.86
2023-01-19T15:41:24.043Z,2.87
2023-01-19T15:43:50.885Z,2.82
2023-01-19T15:46:20.605Z,2.70
2023-01-19T15:48:47.971Z,2.72
2023-01-19T15:51:16.598Z,2.72
2023-01-19T15:53:45.174Z,2.61
2023-01-19T15:56:15.190Z,2.65
2023-01-19T15:58:42.901Z,2.68
2023-01-19T16:01:18.033Z,2.69
2023-01-19T16:03:45.172Z,2.64
2023-01-19T16:06:12.939Z,2.65
2023-01-19T16:08:39.965Z,2.72
2023-01-19T16:11:08.688Z,2.58
2023-01-19T16:13:35.210Z,2.59
2023-01-19T16:16:03.710Z,2.56
2023-01-19T16:18:30.436Z,2.60
2023-01-19T16:20:56.831Z,2.61
2023-01-19T16:23:23.239Z,2.48
2023-01-19T16:26:10.453Z,2.55
2023-01-19T16:28:37.633Z,2.60
2023-01-19T16:31:04.606Z,2.50
2023-01-19T16:33:31.056Z,2.58
2023-01-19T16:35:57.481Z,2.41
2023-01-19T16:38:24.014Z,2.53
2023-01-19T16:40:50.425Z,2.47
2023-01-19T16:43:18.202Z,2.56
2023-01-19T16:45:58.034Z,2.63
2023-01-19T16:48:25.104Z,2.59
2023-01-19T16:51:05.828Z,2.70
2023-01-19T16:53:36.880Z,2.63
2023-01-19T16:56:07.271Z,2.52
2023-01-19T16:58:33.883Z,2.54
2023-01-19T17:01:00.413Z,2.46
2023-01-19T17:03:27.091Z,2.57
2023-01-19T17:05:53.549Z,2.61
2023-01-19T17:08:20.646Z,2.58
2023-01-19T17:10:48.082Z,2.52
2023-01-19T17:13:14.764Z,2.61
2023-01-19T17:15:41.157Z,2.64
2023-01-19T17:18:07.576Z,2.54
2023-01-19T17:20:34.098Z,2.57
2023-01-19T17:23:00.542Z,2.47
2023-01-19T17:25:27.037Z,2.54
2023-01-19T17:27:53.436Z,2.45
2023-01-19T17:30:20.348Z,2.47
2023-01-19T17:32:46.787Z,2.47
2023-01-19T17:35:13.219Z,2.51
2023-01-19T17:37:39.616Z,2.52
2023-01-19T17:40:06.613Z,2.56
2023-01-19T17:42:33.005Z,2.61
2023-01-19T17:44:59.434Z,2.63
2023-01-19T17:47:25.974Z,2.68
2023-01-19T17:49:52.435Z,2.81
2023-01-19T17:52:18.867Z,2.67
2023-01-19T17:54:45.251Z,2.80
2023-01-19T17:57:11.649Z,2.72
2023-01-19T17:59:40.865Z,2.66
2023-01-19T18:02:09.171Z,2.82
2023-01-19T18:04:38.511Z,2.79
2023-01-19T18:07:05.007Z,2.81
2023-01-19T18:09:31.536Z,2.83
2023-01-19T18:11:58.164Z,2.82
2023-01-19T18:14:24.589Z,2.79
2023-01-19T18:16:50.989Z,2.75
2023-01-19T18:19:17.388Z,2.72
2023-01-19T18:21:43.789Z,2.74
2023-01-19T18:24:10.185Z,2.70
2023-01-19T18:26:37.945Z,2.83
2023-01-19T18:29:04.842Z,2.72
2023-01-19T18:31:31.428Z,2.85
2023-01-19T18:33:58.006Z,2.85
2023-01-19T18:36:24.511Z,2.89
2023-01-19T18:38:50.923Z,2.79
2023-01-19T18:41:20.396Z,2.90
2023-01-19T18:43:47.641Z,2.91
2023-01-19T18:46:15.076Z,2.93
2023-01-19T18:48:41.682Z,2.84
2023-01-19T18:51:13.178Z,2.93
2023-01-19T18:53:40.139Z,2.82
2023-01-19T18:56:07.232Z,2.74
2023-01-19T18:58:37.128Z,2.88
2023-01-19T19:01:03.665Z,2.92
2023-01-19T19:03:31.002Z,2.93
2023-01-19T19:06:02.442Z,2.98
2023-01-19T19:08:28.875Z,2.98
2023-01-19T19:10:55.311Z,3.01
2023-01-19T19:13:21.867Z,3.00
2023-01-19T19:15:48.311Z,2.87
2023-01-19T19:18:16.206Z,2.94
2023-01-19T19:20:43.446Z,2.92
2023-01-19T19:23:13.188Z,2.98
2023-01-19T19:25:39.586Z,3.02
2023-01-19T19:28:06.440Z,2.98
2023-01-19T19:30:34.491Z,2.90
2023-01-19T19:33:01.213Z,2.99
2023-01-19T19:35:27.707Z,2.93
2023-01-19T19:37:57.414Z,2.92
2023-01-19T19:40:26.197Z,3.02
2023-01-19T19:42:52.732Z,2.98
2023-01-19T19:45:19.464Z,2.84
2023-01-19T19:47:45.993Z,2.83
2023-01-19T19:50:12.812Z,2.82
2023-01-19T19:52:42.294Z,2.96
2023-01-19T19:55:10.152Z,2.90
2023-01-19T19:57:36.811Z,2.88
2023-01-19T20:00:05.160Z,2.94
2023-01-19T20:02:35.667Z,2.98
2023-01-19T20:05:02.311Z,2.95
2023-01-19T20:07:28.837Z,2.86
2023-01-19T20:09:55.347Z,3.03
2023-01-19T20:12:21.939Z,3.17
2023-01-19T20:14:48.367Z,3.21
2023-01-19T20:17:14.799Z,3.20
2023-01-19T20:19:41.196Z,3.24
2023-01-19T20:22:07.641Z,3.16
2023-01-19T20:24:34.094Z,3.21
2023-01-19T20:27:00.510Z,3.15
2023-01-19T20:29:26.941Z,3.11
2023-01-19T20:31:55.187Z,3.11
2023-01-19T20:34:24.613Z,3.07
2023-01-19T20:36:53.372Z,3.10
2023-01-19T20:39:21.125Z,3.04
2023-01-19T20:41:50.087Z,3.15
2023-01-19T20:44:20.278Z,3.15
2023-01-19T20:46:46.903Z,3.11
2023-01-19T20:49:13.391Z,3.06
2023-01-19T20:51:43.413Z,3.01
2023-01-19T20:54:11.303Z,3.14
2023-01-19T20:56:38.111Z,3.09
2023-01-19T20:59:04.554Z,3.20
2023-01-19T21:01:31.118Z,3.20
2023-01-19T21:03:57.636Z,3.22
2023-01-19T21:06:24.904Z,3.26
2023-01-19T21:08:51.807Z,3.23
2023-01-19T21:11:20.869Z,3.19
2023-01-19T21:13:48.612Z,3.11
2023-01-19T21:16:15.705Z,3.10
2023-01-19T21:18:42.126Z,3.11
2023-01-19T21:21:20.762Z,3.10
2023-01-19T21:23:50.996Z,3.04
2023-01-19T21:26:17.699Z,2.98
2023-01-19T21:28:44.232Z,3.02
2023-01-19T21:31:13.199Z,3.07
2023-01-19T21:33:40.712Z,3.10
2023-01-19T21:36:08.391Z,3.14
2023-01-19T21:38:36.524Z,3.20
2023-01-19T21:41:12.457Z,3.34
2023-01-19T21:43:40.897Z,3.34
2023-01-19T21:46:18.582Z,3.37
2023-01-19T21:48:45.913Z,3.33
2023-01-19T21:51:12.589Z,3.28
2023-01-19T21:53:39.590Z,3.22
2023-01-19T21:56:10.391Z,3.14
2023-01-19T21:58:37.299Z,3.25
2023-01-19T22:01:06.973Z,3.29
2023-01-19T22:03:33.601Z,3.18
2023-01-19T22:06:07.805Z,3.21
2023-01-19T22:08:34.314Z,3.26
2023-01-19T22:11:05.462Z,3.17
2023-01-19T22:13:32.733Z,3.22
2023-01-19T22:16:03.578Z,3.20
2023-01-19T22:18:30.325Z,3.18
2023-01-19T22:20:56.765Z,3.21
2023-01-19T22:23:23.193Z,3.22
2023-01-19T22:25:49.600Z,3.21
2023-01-19T22:28:16.025Z,3.27
2023-01-19T22:30:42.803Z,3.28
2023-01-19T22:33:09.276Z,3.19
2023-01-19T22:35:35.656Z,3.24
2023-01-19T22:38:02.116Z,3.26
2023-01-19T22:40:28.494Z,3.19
2023-01-19T22:42:54.897Z,3.16
2023-01-19T22:45:21.767Z,3.21
2023-01-19T22:47:48.198Z,3.13
2023-01-19T22:50:14.855Z,3.19
2023-01-19T22:52:42.430Z,3.09
2023-01-19T22:55:09.302Z,3.23
2023-01-19T22:57:36.588Z,3.15
2023-01-19T23:00:09.189Z,3.23
2023-01-19T23:02:35.664Z,3.10
2023-01-19T23:05:02.105Z,3.03
2023-01-19T23:07:28.520Z,3.13
2023-01-19T23:09:54.932Z,3.13
2023-01-19T23:12:21.341Z,3.13
2023-01-19T23:14:47.768Z,3.16
2023-01-19T23:17:14.183Z,3.21
2023-01-19T23:19:40.603Z,3.16
2023-01-19T23:22:07.018Z,3.12
2023-01-19T23:24:33.420Z,3.15
2023-01-19T23:27:01.493Z,3.11
2023-01-19T23:29:27.911Z,3.14
2023-01-19T23:31:55.913Z,3.11
2023-01-19T23:34:22.312Z,3.11
2023-01-19T23:36:48.710Z,3.10
2023-01-19T23:39:21.177Z,3.01
2023-01-19T23:41:48.175Z,2.97
2023-01-19T23:44:15.056Z,3.01
2023-01-19T23:46:41.463Z,3.04
2023-01-19T23:49:07.908Z,3.12
2023-01-19T23:51:34.830Z,3.14
2023-01-19T23:54:01.977Z,3.16
2023-01-19T23:56:31.751Z,3.22
2023-01-19T23:59:03.744Z,3.16
